»·PEaware :: N228Q R49-55S

N228Q :: R49-55S

FLIGHT INFORMATION

Flight Status: Arrived
Operator: Privately registered:
United States
More flights under this callsign
Pilot: Chuck O. (4337)
Aircraft: BEECH AIRCRAFT BONANZA
(BE35)
More flights by this aircraft type
Origin: R49 Ferry Co
United States
Destination: 55S Packwood
United States
More flights between these airports :: More routes between these airports
Route: YKM
File this flight plan on PilotEdge
Remarks: ABC WA LEG 31
Altitude:
(Current/Filed)
8,500ft
Speed:
(Current/Filed)
155kts
Departed: 30-Jul-20 08:45 AM
Arrived: 30-Jul-20 10:12 AM
Distance/Time
Traveled:
176nm/1:27
Distance/Time
To Go:
Arrived

Flight Plot

Page will automatically refresh every two minutes.

Flight plan parsing failed; only flown route is shown


Map Options




Map Legend


Flown Route
Filed Route
Departure Airport
Arrival Airport
Navaid (VOR, NDB)
Fix

Horizontal Profiles

Position Reports

Time Latitude Longitude Heading Altitude Ground
Speed
30-Jul-20 08:39 48.714172 -118.656226 277 2522ft 0kts
30-Jul-20 08:40 48.714172 -118.656229 277 2522ft 0kts
30-Jul-20 08:41 48.714145 -118.656441 246 2522ft 0kts
30-Jul-20 08:42 48.713884 -118.656593 184 2522ft 0kts
30-Jul-20 08:42 48.713882 -118.656593 184 2522ft 0kts
30-Jul-20 08:43 48.713547 -118.656768 244 2522ft 2kts
30-Jul-20 08:44 48.724619 -118.655427 3 2630ft 93kts
30-Jul-20 08:46 48.757325 -118.658512 9 3735ft 112kts
30-Jul-20 08:46 48.782179 -118.646302 18 4632ft 111kts
30-Jul-20 08:47 48.812220 -118.636950 313 5665ft 114kts
30-Jul-20 08:49 48.791756 -118.677579 226 6729ft 114kts
30-Jul-20 08:49 48.773480 -118.708916 227 7341ft 121kts
30-Jul-20 08:50 48.750856 -118.747023 227 8155ft 121kts
30-Jul-20 08:51 48.726486 -118.787875 227 8493ft 149kts
30-Jul-20 08:52 48.696591 -118.837937 227 8496ft 166kts
30-Jul-20 08:53 48.664913 -118.890831 227 8490ft 169kts
30-Jul-20 08:54 48.633443 -118.943245 226 8488ft 167kts
30-Jul-20 08:55 48.601989 -118.995522 226 8479ft 168kts
30-Jul-20 08:56 48.570108 -119.048406 226 8476ft 171kts
30-Jul-20 08:57 48.537726 -119.102013 226 8475ft 171kts
30-Jul-20 08:58 48.505549 -119.155166 226 8470ft 171kts
30-Jul-20 08:59 48.473116 -119.208637 226 8470ft 171kts
30-Jul-20 09:00 48.440775 -119.261847 226 8471ft 170kts
30-Jul-20 09:01 48.408935 -119.314146 225 8468ft 169kts
30-Jul-20 09:02 48.376798 -119.366816 225 8467ft 169kts
30-Jul-20 09:03 48.344943 -119.418914 225 8464ft 168kts
30-Jul-20 09:04 48.313489 -119.470254 225 8464ft 165kts
30-Jul-20 09:05 48.276280 -119.503009 177 8466ft 161kts
30-Jul-20 09:06 48.231179 -119.498291 175 8498ft 162kts
30-Jul-20 09:07 48.185837 -119.493560 176 8497ft 162kts
30-Jul-20 09:08 48.141520 -119.503078 195 8485ft 162kts
30-Jul-20 09:09 48.097813 -119.522664 195 8492ft 163kts
30-Jul-20 09:10 48.053903 -119.542117 195 8489ft 162kts
30-Jul-20 09:11 48.011219 -119.560950 195 8493ft 160kts
30-Jul-20 09:12 47.967837 -119.580172 195 8490ft 163kts
30-Jul-20 09:13 47.924158 -119.599492 195 8501ft 163kts
30-Jul-20 09:14 47.880445 -119.618790 195 8494ft 161kts
30-Jul-20 09:15 47.837864 -119.637545 195 8494ft 160kts
30-Jul-20 09:16 47.794452 -119.656641 195 8486ft 161kts
30-Jul-20 09:17 47.751785 -119.675374 195 8487ft 161kts
30-Jul-20 09:18 47.708036 -119.694553 195 8488ft 163kts
30-Jul-20 09:19 47.664264 -119.713710 195 8482ft 162kts
30-Jul-20 09:20 47.621126 -119.732550 195 8484ft 162kts
30-Jul-20 09:21 47.577171 -119.751718 194 8483ft 163kts
30-Jul-20 09:22 47.533421 -119.770761 194 8481ft 164kts
30-Jul-20 09:23 47.489301 -119.789934 194 8479ft 165kts
30-Jul-20 09:24 47.445028 -119.809141 194 8473ft 163kts
30-Jul-20 09:25 47.401928 -119.827797 194 8480ft 161kts
30-Jul-20 09:26 47.358467 -119.846580 194 8480ft 164kts
30-Jul-20 09:27 47.314336 -119.865629 194 8500ft 165kts
30-Jul-20 09:28 47.269800 -119.884814 194 8500ft 166kts
30-Jul-20 09:29 47.225172 -119.904006 194 8500ft 167kts
30-Jul-20 09:30 47.189949 -119.948887 227 8499ft 169kts
30-Jul-20 09:31 47.159849 -120.001123 226 8506ft 169kts
30-Jul-20 09:32 47.128789 -120.054216 225 8503ft 170kts
30-Jul-20 09:33 47.098009 -120.106591 225 8499ft 168kts
30-Jul-20 09:34 47.067581 -120.158231 225 8503ft 167kts
30-Jul-20 09:35 47.036965 -120.210091 225 8515ft 167kts
30-Jul-20 09:36 47.006325 -120.261894 225 8506ft 168kts
30-Jul-20 09:37 46.975578 -120.313786 225 8506ft 167kts
30-Jul-20 09:38 46.944981 -120.365319 225 8503ft 168kts
30-Jul-20 09:39 46.914047 -120.416834 224 8496ft 168kts
30-Jul-20 09:40 46.882928 -120.468349 224 8496ft 168kts
30-Jul-20 09:41 46.847386 -120.508902 188 8494ft 164kts
30-Jul-20 09:42 46.801890 -120.521614 186 8481ft 165kts
30-Jul-20 09:43 46.757107 -120.534109 186 8474ft 162kts
30-Jul-20 09:44 46.713484 -120.552275 192 8465ft 164kts
30-Jul-20 09:45 46.669644 -120.571174 191 8463ft 166kts
30-Jul-20 09:46 46.624520 -120.590406 191 8456ft 168kts
30-Jul-20 09:47 46.580260 -120.612304 218 8463ft 174kts
30-Jul-20 09:48 46.571463 -120.683039 271 8456ft 184kts
30-Jul-20 09:49 46.573353 -120.757711 269 8461ft 183kts
30-Jul-20 09:50 46.574245 -120.831749 269 8469ft 182kts
30-Jul-20 09:51 46.574897 -120.905229 268 8503ft 180kts
30-Jul-20 09:52 46.575464 -120.977759 268 8512ft 181kts
30-Jul-20 09:53 46.575985 -121.051424 268 8517ft 182kts
30-Jul-20 09:54 46.576465 -121.125240 268 8521ft 179kts
30-Jul-20 09:55 46.576879 -121.196930 268 8533ft 176kts
30-Jul-20 09:56 46.577247 -121.268760 268 8537ft 180kts
30-Jul-20 09:57 46.577588 -121.342279 268 8533ft 180kts
30-Jul-20 09:58 46.577870 -121.414892 268 8539ft 180kts
30-Jul-20 09:59 46.578113 -121.488466 268 8504ft 182kts
30-Jul-20 10:00 46.578794 -121.561803 269 8512ft 180kts
30-Jul-20 10:01 46.579740 -121.634661 269 8509ft 179kts
30-Jul-20 10:02 46.567838 -121.704035 247 7956ft 174kts
30-Jul-20 10:03 46.550655 -121.767576 243 6832ft 163kts
30-Jul-20 10:04 46.532168 -121.826102 248 5341ft 157kts
30-Jul-20 10:05 46.511725 -121.866046 142 4108ft 138kts
30-Jul-20 10:06 46.520170 -121.818903 70 3034ft 132kts
30-Jul-20 10:07 46.537602 -121.769300 61 2051ft 146kts
30-Jul-20 10:08 46.555449 -121.724293 49 2073ft 113kts
30-Jul-20 10:09 46.579891 -121.696332 21 1715ft 104kts
30-Jul-20 10:10 46.602352 -121.679583 28 1057ft 66kts
30-Jul-20 10:11 46.605586 -121.676478 83 1056ft 1kts
30-Jul-20 10:12 46.605628 -121.676016 121 1056ft 0kts
30-Jul-20 10:13 46.605628 -121.676016 121 1056ft 0kts
30-Jul-20 10:14 46.605628 -121.676016 121 1056ft 0kts

Navigation Log

Ident Type
Flight plan parsing failed, navigation log unavailable